sensor_id;sensor_type;location;lat;lon;timestamp;pressure;altitude;pressure_sealevel;temperature;humidity
4167;BME280;2097;51.104;7.150;2023-02-16T00:01:21;99678.44;;;2.40;96.31
4167;BME280;2097;51.104;7.150;2023-02-16T00:03:48;99727.63;;;2.66;96.36
4167;BME280;2097;51.104;7.150;2023-02-16T00:06:16;99737.91;;;2.63;96.62
4167;BME280;2097;51.104;7.150;2023-02-16T00:08:44;99727.69;;;2.60;96.84
4167;BME280;2097;51.104;7.150;2023-02-16T00:11:16;99415.88;;;0.75;96.03
4167;BME280;2097;51.104;7.150;2023-02-16T00:14:03;99637.06;;;1.99;96.42
4167;BME280;2097;51.104;7.150;2023-02-16T00:16:30;99697.25;;;2.36;96.60
4167;BME280;2097;51.104;7.150;2023-02-16T00:18:57;99658.28;;;2.10;96.65
4167;BME280;2097;51.104;7.150;2023-02-16T00:21:24;99730.44;;;2.45;97.09
4167;BME280;2097;51.104;7.150;2023-02-16T00:23:51;99592.25;;;1.59;96.80
4167;BME280;2097;51.104;7.150;2023-02-16T00:26:20;99649.91;;;1.93;97.60
4167;BME280;2097;51.104;7.150;2023-02-16T00:28:48;99720.22;;;2.40;97.22
4167;BME280;2097;51.104;7.150;2023-02-16T00:31:19;99643.06;;;1.97;96.96
4167;BME280;2097;51.104;7.150;2023-02-16T00:33:46;99719.41;;;2.40;96.87
4167;BME280;2097;51.104;7.150;2023-02-16T00:36:13;99704.91;;;2.39;96.85
4167;BME280;2097;51.104;7.150;2023-02-16T00:38:40;99717.72;;;2.36;97.41
4167;BME280;2097;51.104;7.150;2023-02-16T00:41:15;99640.50;;;1.95;97.08
4167;BME280;2097;51.104;7.150;2023-02-16T00:44:04;99710.03;;;2.36;97.35
4167;BME280;2097;51.104;7.150;2023-02-16T00:46:33;99711.78;;;2.34;97.34
4167;BME280;2097;51.104;7.150;2023-02-16T00:48:59;99706.72;;;2.29;97.43
4167;BME280;2097;51.104;7.150;2023-02-16T00:51:26;99707.56;;;2.27;97.64
4167;BME280;2097;51.104;7.150;2023-02-16T00:53:53;99649.97;;;1.89;97.90
4167;BME280;2097;51.104;7.150;2023-02-16T00:56:20;99714.53;;;2.16;97.81
4167;BME280;2097;51.104;7.150;2023-02-16T00:58:49;99708.59;;;2.10;98.04
4167;BME280;2097;51.104;7.150;2023-02-16T01:01:20;99614.56;;;1.45;98.02
4167;BME280;2097;51.104;7.150;2023-02-16T01:03:51;99709.53;;;2.01;98.83
4167;BME280;2097;51.104;7.150;2023-02-16T01:06:18;99411.19;;;0.23;98.28
4167;BME280;2097;51.104;7.150;2023-02-16T01:09:11;99694.25;;;1.95;98.58
4167;BME280;2097;51.104;7.150;2023-02-16T01:11:56;99701.91;;;1.98;98.50
4167;BME280;2097;51.104;7.150;2023-02-16T01:14:23;99702.72;;;2.03;98.45
4167;BME280;2097;51.104;7.150;2023-02-16T01:16:50;99700.06;;;2.11;98.19
4167;BME280;2097;51.104;7.150;2023-02-16T01:19:19;99692.38;;;2.12;97.82
4167;BME280;2097;51.104;7.150;2023-02-16T01:21:46;99645.78;;;1.79;98.05
4167;BME280;2097;51.104;7.150;2023-02-16T01:24:13;99634.81;;;1.69;98.09
4167;BME280;2097;51.104;7.150;2023-02-16T01:26:41;99692.41;;;2.09;98.19
4167;BME280;2097;51.104;7.150;2023-02-16T01:29:12;99632.25;;;1.69;98.25
4167;BME280;2097;51.104;7.150;2023-02-16T01:31:40;99625.50;;;1.61;98.04
4167;BME280;2097;51.104;7.150;2023-02-16T01:34:07;99352.72;;;-0.01;98.18
4167;BME280;2097;51.104;7.150;2023-02-16T01:36:37;99650.88;;;1.82;98.74
4167;BME280;2097;51.104;7.150;2023-02-16T01:39:05;99694.25;;;1.97;98.55
4167;BME280;2097;51.104;7.150;2023-02-16T01:41:58;99674.63;;;1.96;98.31
4167;BME280;2097;51.104;7.150;2023-02-16T01:44:32;99689.97;;;1.99;98.48
4167;BME280;2097;51.104;7.150;2023-02-16T01:47:05;99616.97;;;1.60;98.64
4167;BME280;2097;51.104;7.150;2023-02-16T01:49:35;99609.34;;;1.54;98.36
4167;BME280;2097;51.104;7.150;2023-02-16T01:52:06;99683.16;;;1.98;98.62
4167;BME280;2097;51.104;7.150;2023-02-16T01:54:40;99678.88;;;1.95;98.81
4167;BME280;2097;51.104;7.150;2023-02-16T01:57:21;99617.03;;;1.54;98.49
4167;BME280;2097;51.104;7.150;2023-02-16T02:00:11;99681.50;;;1.91;99.40
4167;BME280;2097;51.104;7.150;2023-02-16T02:02:40;99591.56;;;1.41;98.96
4167;BME280;2097;51.104;7.150;2023-02-16T02:05:19;99631.56;;;1.46;99.66
4167;BME280;2097;51.104;7.150;2023-02-16T02:08:22;99679.00;;;1.83;99.64
4167;BME280;2097;51.104;7.150;2023-02-16T02:11:02;99674.69;;;1.90;99.06
4167;BME280;2097;51.104;7.150;2023-02-16T02:13:39;99635.63;;;1.70;98.77
4167;BME280;2097;51.104;7.150;2023-02-16T02:16:07;99597.56;;;1.38;98.83
4167;BME280;2097;51.104;7.150;2023-02-16T02:18:35;99668.81;;;1.79;99.61
4167;BME280;2097;51.104;7.150;2023-02-16T02:27:20;99675.72;;;1.68;100.00
4167;BME280;2097;51.104;7.150;2023-02-16T02:30:19;99662.97;;;1.66;100.00
4167;BME280;2097;51.104;7.150;2023-02-16T02:33:03;99660.38;;;1.68;99.96
4167;BME280;2097;51.104;7.150;2023-02-16T02:35:39;99659.53;;;1.67;100.00
4167;BME280;2097;51.104;7.150;2023-02-16T02:38:11;99452.75;;;0.41;99.87
4167;BME280;2097;51.104;7.150;2023-02-16T02:40:52;99442.66;;;0.23;99.87
4167;BME280;2097;51.104;7.150;2023-02-16T02:43:25;99668.16;;;1.57;100.00
4167;BME280;2097;51.104;7.150;2023-02-16T02:45:57;99607.94;;;1.17;100.00
4167;BME280;2097;51.104;7.150;2023-02-16T02:48:29;99622.31;;;1.36;100.00
4167;BME280;2097;51.104;7.150;2023-02-16T02:50:57;99361.28;;;-0.14;99.88
4167;BME280;2097;51.104;7.150;2023-02-16T02:53:45;99661.34;;;1.53;100.00
4167;BME280;2097;51.104;7.150;2023-02-16T02:56:16;99585.84;;;1.10;100.00
4167;BME280;2097;51.104;7.150;2023-02-16T02:59:05;99661.34;;;1.56;100.00
4167;BME280;2097;51.104;7.150;2023-02-16T03:01:55;99666.44;;;1.56;99.94
4167;BME280;2097;51.104;7.150;2023-02-16T03:04:26;99621.47;;;1.34;100.00
4167;BME280;2097;51.104;7.150;2023-02-16T03:06:56;99641.78;;;1.46;100.00
4167;BME280;2097;51.104;7.150;2023-02-16T03:09:24;99652.84;;;1.51;100.00
4167;BME280;2097;51.104;7.150;2023-02-16T03:11:52;99648.56;;;1.53;100.00
4167;BME280;2097;51.104;7.150;2023-02-16T03:14:42;99623.16;;;1.35;100.00
4167;BME280;2097;51.104;7.150;2023-02-16T03:17:15;99644.34;;;1.46;100.00
4167;BME280;2097;51.104;7.150;2023-02-16T03:20:02;99639.25;;;1.48;100.00
4167;BME280;2097;51.104;7.150;2023-02-16T03:22:48;99566.31;;;1.07;100.00
4167;BME280;2097;51.104;7.150;2023-02-16T03:25:34;99641.81;;;1.48;100.00
4167;BME280;2097;51.104;7.150;2023-02-16T03:28:21;99632.41;;;1.48;100.00
4167;BME280;2097;51.104;7.150;2023-02-16T03:31:10;99618.00;;;1.41;100.00
4167;BME280;2097;51.104;7.150;2023-02-16T03:33:38;99625.56;;;1.55;100.00
4167;BME280;2097;51.104;7.150;2023-02-16T03:36:06;99624.66;;;1.57;100.00
4167;BME280;2097;51.104;7.150;2023-02-16T03:38:33;99583.06;;;1.40;100.00
4167;BME280;2097;51.104;7.150;2023-02-16T03:41:03;99618.63;;;1.66;100.00
4167;BME280;2097;51.104;7.150;2023-02-16T03:43:30;99609.25;;;1.66;100.00
4167;BME280;2097;51.104;7.150;2023-02-16T03:45:57;99543.19;;;1.21;100.00
4167;BME280;2097;51.104;7.150;2023-02-16T03:48:25;99334.84;;;-0.01;99.94
4167;BME280;2097;51.104;7.150;2023-02-16T03:50:52;99608.38;;;1.67;99.82
4167;BME280;2097;51.104;7.150;2023-02-16T03:53:19;99432.97;;;0.64;100.00
4167;BME280;2097;51.104;7.150;2023-02-16T03:55:46;99612.72;;;1.59;100.00
4167;BME280;2097;51.104;7.150;2023-02-16T03:58:15;99605.09;;;1.53;100.00
4167;BME280;2097;51.104;7.150;2023-02-16T04:00:43;99617.09;;;1.47;100.00
4167;BME280;2097;51.104;7.150;2023-02-16T04:03:10;99598.41;;;1.40;100.00
4167;BME280;2097;51.104;7.150;2023-02-16T04:05:38;99634.94;;;1.51;100.00
4167;BME280;2097;51.104;7.150;2023-02-16T04:08:06;99622.16;;;1.53;100.00
4167;BME280;2097;51.104;7.150;2023-02-16T04:10:33;99483.19;;;0.65;100.00
4167;BME280;2097;51.104;7.150;2023-02-16T04:13:00;99528.06;;;0.98;100.00
4167;BME280;2097;51.104;7.150;2023-02-16T04:15:27;99614.44;;;1.57;100.00
4167;BME280;2097;51.104;7.150;2023-02-16T04:17:55;99550.03;;;1.16;100.00
4167;BME280;2097;51.104;7.150;2023-02-16T04:20:25;99517.84;;;0.98;100.00
4167;BME280;2097;51.104;7.150;2023-02-16T04:22:53;99622.94;;;1.59;100.00
4167;BME280;2097;51.104;7.150;2023-02-16T04:25:21;99466.97;;;0.72;100.00
4167;BME280;2097;51.104;7.150;2023-02-16T04:27:48;99613.59;;;1.55;100.00
4167;BME280;2097;51.104;7.150;2023-02-16T04:30:17;99611.91;;;1.56;100.00
4167;BME280;2097;51.104;7.150;2023-02-16T04:32:44;99533.13;;;1.04;100.00
4167;BME280;2097;51.104;7.150;2023-02-16T04:35:11;99618.69;;;1.60;100.00
4167;BME280;2097;51.104;7.150;2023-02-16T04:37:38;99349.28;;;0.01;100.00
4167;BME280;2097;51.104;7.150;2023-02-16T04:40:08;99505.94;;;0.94;100.00
4167;BME280;2097;51.104;7.150;2023-02-16T04:42:35;99527.16;;;1.03;100.00
4167;BME280;2097;51.104;7.150;2023-02-16T04:45:02;99538.13;;;1.12;100.00
4167;BME280;2097;51.104;7.150;2023-02-16T04:47:29;99472.06;;;0.75;100.00
4167;BME280;2097;51.104;7.150;2023-02-16T04:49:55;99615.28;;;1.61;100.00
4167;BME280;2097;51.104;7.150;2023-02-16T04:52:22;99617.84;;;1.59;100.00
4167;BME280;2097;51.104;7.150;2023-02-16T04:54:49;99609.31;;;1.57;100.00
4167;BME280;2097;51.104;7.150;2023-02-16T04:57:17;99466.09;;;0.73;100.00
4167;BME280;2097;51.104;7.150;2023-02-16T04:59:45;99536.41;;;1.14;100.00
4167;BME280;2097;51.104;7.150;2023-02-16T05:02:12;99589.03;;;1.39;100.00
4167;BME280;2097;51.104;7.150;2023-02-16T05:04:39;99614.44;;;1.57;100.00
4167;BME280;2097;51.104;7.150;2023-02-16T05:07:06;99545.72;;;1.24;100.00
4167;BME280;2097;51.104;7.150;2023-02-16T05:09:33;99614.41;;;1.60;100.00
4167;BME280;2097;51.104;7.150;2023-02-16T05:12:00;99535.59;;;1.12;100.00
4167;BME280;2097;51.104;7.150;2023-02-16T05:14:45;99521.19;;;1.04;100.00
4167;BME280;2097;51.104;7.150;2023-02-16T05:17:14;99555.16;;;1.16;100.00
4167;BME280;2097;51.104;7.150;2023-02-16T05:19:44;99605.97;;;1.54;100.00
4167;BME280;2097;51.104;7.150;2023-02-16T05:22:12;99542.38;;;1.18;100.00
4167;BME280;2097;51.104;7.150;2023-02-16T05:24:39;99538.09;;;1.18;100.00
4167;BME280;2097;51.104;7.150;2023-02-16T05:27:07;99607.66;;;1.53;100.00
4167;BME280;2097;51.104;7.150;2023-02-16T05:29:35;99620.44;;;1.53;100.00
4167;BME280;2097;51.104;7.150;2023-02-16T05:32:03;99612.78;;;1.50;100.00
4167;BME280;2097;51.104;7.150;2023-02-16T05:34:31;99609.41;;;1.48;100.00
4167;BME280;2097;51.104;7.150;2023-02-16T05:36:58;99536.53;;;1.03;100.00
4167;BME280;2097;51.104;7.150;2023-02-16T05:39:25;99619.63;;;1.48;100.00
4167;BME280;2097;51.104;7.150;2023-02-16T05:41:53;99617.97;;;1.44;100.00
4167;BME280;2097;51.104;7.150;2023-02-16T05:44:21;99609.47;;;1.42;100.00
4167;BME280;2097;51.104;7.150;2023-02-16T05:46:48;99535.69;;;0.99;100.00
4167;BME280;2097;51.104;7.150;2023-02-16T05:49:16;99623.03;;;1.47;100.00
4167;BME280;2097;51.104;7.150;2023-02-16T05:51:43;99629.84;;;1.48;100.00
4167;BME280;2097;51.104;7.150;2023-02-16T05:54:11;99585.78;;;1.24;100.00
4167;BME280;2097;51.104;7.150;2023-02-16T05:56:42;99618.84;;;1.42;100.00
4167;BME280;2097;51.104;7.150;2023-02-16T05:59:10;99617.13;;;1.41;100.00
4167;BME280;2097;51.104;7.150;2023-02-16T06:01:36;99430.69;;;0.31;100.00
4167;BME280;2097;51.104;7.150;2023-02-16T06:04:05;99618.81;;;1.45;100.00
4167;BME280;2097;51.104;7.150;2023-02-16T06:06:34;99577.25;;;1.20;100.00
4167;BME280;2097;51.104;7.150;2023-02-16T06:09:01;99499.34;;;0.69;100.00
4167;BME280;2097;51.104;7.150;2023-02-16T06:11:28;99619.69;;;1.44;100.00
4167;BME280;2097;51.104;7.150;2023-02-16T06:14:02;99623.94;;;1.45;100.00
4167;BME280;2097;51.104;7.150;2023-02-16T06:16:30;99618.78;;;1.46;100.00
4167;BME280;2097;51.104;7.150;2023-02-16T06:18:57;99612.81;;;1.47;100.00
4167;BME280;2097;51.104;7.150;2023-02-16T06:21:25;99451.81;;;0.51;100.00
4167;BME280;2097;51.104;7.150;2023-02-16T06:23:54;99565.38;;;1.13;100.00
4167;BME280;2097;51.104;7.150;2023-02-16T06:26:21;99621.31;;;1.49;100.00
4167;BME280;2097;51.104;7.150;2023-02-16T06:28:47;99467.84;;;0.68;100.00
4167;BME280;2097;51.104;7.150;2023-02-16T06:31:14;99613.59;;;1.57;100.00
4167;BME280;2097;51.104;7.150;2023-02-16T06:33:42;99608.44;;;1.61;100.00
4167;BME280;2097;51.104;7.150;2023-02-16T06:36:09;99593.16;;;1.52;100.00
4167;BME280;2097;51.104;7.150;2023-02-16T06:38:36;99613.44;;;1.72;100.00
4167;BME280;2097;51.104;7.150;2023-02-16T06:41:04;99410.06;;;0.55;100.00
4167;BME280;2097;51.104;7.150;2023-02-16T06:43:32;99618.44;;;1.84;100.00
4167;BME280;2097;51.104;7.150;2023-02-16T06:45:59;99616.66;;;1.90;100.00
4167;BME280;2097;51.104;7.150;2023-02-16T06:48:26;99614.94;;;1.92;100.00
4167;BME280;2097;51.104;7.150;2023-02-16T06:50:52;99367.69;;;0.38;100.00
4167;BME280;2097;51.104;7.150;2023-02-16T06:53:19;99467.38;;;1.20;100.00
4167;BME280;2097;51.104;7.150;2023-02-16T06:55:48;99191.50;;;-0.37;100.00
4167;BME280;2097;51.104;7.150;2023-02-16T06:58:17;99635.13;;;2.19;100.00
4167;BME280;2097;51.104;7.150;2023-02-16T07:00:44;99613.75;;;2.24;100.00
4167;BME280;2097;51.104;7.150;2023-02-16T07:03:11;99622.19;;;2.31;100.00
4167;BME280;2097;51.104;7.150;2023-02-16T07:05:38;99620.41;;;2.36;100.00
4167;BME280;2097;51.104;7.150;2023-02-16T07:08:04;99550.91;;;1.98;100.00
4167;BME280;2097;51.104;7.150;2023-02-16T07:10:31;99517.84;;;1.82;100.00
4167;BME280;2097;51.104;7.150;2023-02-16T07:12:58;99630.47;;;2.54;100.00
4167;BME280;2097;51.104;7.150;2023-02-16T07:15:26;99623.53;;;2.59;100.00
4167;BME280;2097;51.104;7.150;2023-02-16T07:17:53;99628.59;;;2.65;100.00
4167;BME280;2097;51.104;7.150;2023-02-16T07:20:20;99526.84;;;2.14;100.00
4167;BME280;2097;51.104;7.150;2023-02-16T07:22:46;99623.28;;;2.80;100.00
4167;BME280;2097;51.104;7.150;2023-02-16T07:25:13;99631.72;;;2.86;100.00
4167;BME280;2097;51.104;7.150;2023-02-16T07:27:40;99634.97;;;2.96;100.00
4167;BME280;2097;51.104;7.150;2023-02-16T07:30:08;99621.53;;;2.82;100.00
4167;BME280;2097;51.104;7.150;2023-02-16T07:32:37;99645.94;;;3.08;100.00
4167;BME280;2097;51.104;7.150;2023-02-16T07:35:04;99643.28;;;3.13;100.00
4167;BME280;2097;51.104;7.150;2023-02-16T07:37:31;99630.38;;;3.19;100.00
4167;BME280;2097;51.104;7.150;2023-02-16T07:39:58;99576.03;;;2.96;100.00
4167;BME280;2097;51.104;7.150;2023-02-16T07:42:28;99601.53;;;3.06;100.00
4167;BME280;2097;51.104;7.150;2023-02-16T07:44:55;99505.00;;;2.51;100.00
4167;BME280;2097;51.104;7.150;2023-02-16T07:47:22;99378.94;;;1.74;100.00
4167;BME280;2097;51.104;7.150;2023-02-16T07:49:50;99627.75;;;3.25;100.00
4167;BME280;2097;51.104;7.150;2023-02-16T07:52:17;99632.69;;;3.33;100.00
4167;BME280;2097;51.104;7.150;2023-02-16T07:54:44;99576.03;;;2.97;100.00
4167;BME280;2097;51.104;7.150;2023-02-16T07:57:11;99582.69;;;3.09;100.00
4167;BME280;2097;51.104;7.150;2023-02-16T07:59:38;99642.81;;;3.44;100.00
4167;BME280;2097;51.104;7.150;2023-02-16T08:02:05;99642.78;;;3.45;100.00
4167;BME280;2097;51.104;7.150;2023-02-16T08:04:33;99467.47;;;2.47;100.00
4167;BME280;2097;51.104;7.150;2023-02-16T08:07:01;99644.28;;;3.58;100.00
4167;BME280;2097;51.104;7.150;2023-02-16T08:09:28;99634.72;;;3.66;100.00
4167;BME280;2097;51.104;7.150;2023-02-16T08:11:55;99605.00;;;3.55;100.00
4167;BME280;2097;51.104;7.150;2023-02-16T08:14:22;99653.25;;;3.83;99.73
4167;BME280;2097;51.104;7.150;2023-02-16T08:16:49;99582.66;;;3.60;100.00
4167;BME280;2097;51.104;7.150;2023-02-16T08:19:16;99637.50;;;4.03;99.58
4167;BME280;2097;51.104;7.150;2023-02-16T08:21:42;99634.78;;;4.10;99.44
4167;BME280;2097;51.104;7.150;2023-02-16T08:24:15;99631.34;;;4.11;99.40
4167;BME280;2097;51.104;7.150;2023-02-16T08:26:42;99560.19;;;3.74;99.33
4167;BME280;2097;51.104;7.150;2023-02-16T08:29:09;99639.88;;;4.13;99.04
4167;BME280;2097;51.104;7.150;2023-02-16T08:31:38;99439.31;;;2.98;99.43
4167;BME280;2097;51.104;7.150;2023-02-16T08:34:06;99641.50;;;4.17;99.13
4167;BME280;2097;51.104;7.150;2023-02-16T08:36:34;99639.88;;;4.13;98.96
4167;BME280;2097;51.104;7.150;2023-02-16T08:39:04;99634.72;;;4.13;98.70
4167;BME280;2097;51.104;7.150;2023-02-16T08:41:35;99631.28;;;4.14;99.05
4167;BME280;2097;51.104;7.150;2023-02-16T08:44:03;99623.56;;;4.16;99.34
4167;BME280;2097;51.104;7.150;2023-02-16T08:46:30;99631.28;;;4.16;99.01
4167;BME280;2097;51.104;7.150;2023-02-16T08:48:59;99621.81;;;4.18;99.80
4167;BME280;2097;51.104;7.150;2023-02-16T08:51:27;99555.81;;;3.77;98.82
4167;BME280;2097;51.104;7.150;2023-02-16T08:53:56;99584.72;;;3.87;99.08
4167;BME280;2097;51.104;7.150;2023-02-16T08:56:24;99643.25;;;4.17;98.56
4167;BME280;2097;51.104;7.150;2023-02-16T08:58:52;99639.03;;;4.13;99.18
4167;BME280;2097;51.104;7.150;2023-02-16T09:01:19;99593.50;;;3.77;99.38
4167;BME280;2097;51.104;7.150;2023-02-16T09:03:48;99645.81;;;4.15;99.01
4167;BME280;2097;51.104;7.150;2023-02-16T09:06:16;99645.81;;;4.15;99.21
4167;BME280;2097;51.104;7.150;2023-02-16T09:08:44;99650.84;;;4.20;99.13
4167;BME280;2097;51.104;7.150;2023-02-16T09:11:13;99638.28;;;4.06;98.84
4167;BME280;2097;51.104;7.150;2023-02-16T09:13:41;99394.44;;;2.75;98.92
4167;BME280;2097;51.104;7.150;2023-02-16T09:16:12;99668.72;;;4.27;99.05
4167;BME280;2097;51.104;7.150;2023-02-16T09:18:40;99548.63;;;3.50;98.87
4167;BME280;2097;51.104;7.150;2023-02-16T09:21:09;99278.88;;;1.95;98.26
4167;BME280;2097;51.104;7.150;2023-02-16T09:23:37;99677.25;;;4.29;98.79
4167;BME280;2097;51.104;7.150;2023-02-16T09:26:05;99674.63;;;4.31;98.59
4167;BME280;2097;51.104;7.150;2023-02-16T09:28:34;99667.81;;;4.30;98.80
4167;BME280;2097;51.104;7.150;2023-02-16T09:31:08;99475.63;;;3.23;98.68
4167;BME280;2097;51.104;7.150;2023-02-16T09:33:37;99624.47;;;4.13;98.67
4167;BME280;2097;51.104;7.150;2023-02-16T09:36:05;99657.97;;;4.51;98.45
4167;BME280;2097;51.104;7.150;2023-02-16T09:38:32;99601.84;;;4.32;98.58
4167;BME280;2097;51.104;7.150;2023-02-16T09:41:05;99415.56;;;3.33;97.93
4167;BME280;2097;51.104;7.150;2023-02-16T09:43:41;99572.91;;;4.63;96.83
4167;BME280;2097;51.104;7.150;2023-02-16T09:46:12;99658.41;;;5.47;96.16
4167;BME280;2097;51.104;7.150;2023-02-16T09:48:44;99592.63;;;5.37;95.58
4167;BME280;2097;51.104;7.150;2023-02-16T09:51:16;99663.34;;;5.90;94.94
4167;BME280;2097;51.104;7.150;2023-02-16T09:53:45;99608.13;;;5.67;95.46
4167;BME280;2097;51.104;7.150;2023-02-16T09:56:24;99670.28;;;6.20;94.65
4167;BME280;2097;51.104;7.150;2023-02-16T09:58:56;99678.91;;;6.51;94.61
4167;BME280;2097;51.104;7.150;2023-02-16T10:01:30;99669.84;;;6.67;93.62
4167;BME280;2097;51.104;7.150;2023-02-16T10:04:17;99668.63;;;6.80;93.60
4167;BME280;2097;51.104;7.150;2023-02-16T10:06:55;99669.34;;;6.85;93.60
4167;BME280;2097;51.104;7.150;2023-02-16T10:09:28;99682.09;;;6.89;93.46
4167;BME280;2097;51.104;7.150;2023-02-16T10:12:01;99626.09;;;6.64;92.99
4167;BME280;2097;51.104;7.150;2023-02-16T10:14:33;99685.84;;;7.08;93.13
4167;BME280;2097;51.104;7.150;2023-02-16T10:17:12;99678.50;;;7.24;92.99
4167;BME280;2097;51.104;7.150;2023-02-16T10:19:47;99622.06;;;7.12;92.63
4167;BME280;2097;51.104;7.150;2023-02-16T10:22:22;99683.53;;;7.54;92.04
4167;BME280;2097;51.104;7.150;2023-02-16T10:24:58;99610.84;;;7.13;91.89
4167;BME280;2097;51.104;7.150;2023-02-16T10:27:31;99632.44;;;7.38;92.02
4167;BME280;2097;51.104;7.150;2023-02-16T10:30:11;99687.19;;;7.75;91.79
4167;BME280;2097;51.104;7.150;2023-02-16T10:32:53;99683.41;;;7.85;91.79
4167;BME280;2097;51.104;7.150;2023-02-16T10:35:27;99684.31;;;7.84;91.38
4167;BME280;2097;51.104;7.150;2023-02-16T10:38:02;99614.06;;;7.47;91.22
4167;BME280;2097;51.104;7.150;2023-02-16T10:40:36;99695.25;;;7.91;91.47
4167;BME280;2097;51.104;7.150;2023-02-16T10:43:13;99680.63;;;7.90;91.66
4167;BME280;2097;51.104;7.150;2023-02-16T10:45:47;99684.91;;;7.91;91.91
4167;BME280;2097;51.104;7.150;2023-02-16T10:48:15;99662.94;;;7.79;91.88
4167;BME280;2097;51.104;7.150;2023-02-16T10:50:48;99684.81;;;7.94;91.47
4167;BME280;2097;51.104;7.150;2023-02-16T10:53:18;99680.53;;;7.93;92.20
4167;BME280;2097;51.104;7.150;2023-02-16T10:55:47;99689.38;;;7.87;92.00
4167;BME280;2097;51.104;7.150;2023-02-16T10:58:18;99686.09;;;7.82;92.48
4167;BME280;2097;51.104;7.150;2023-02-16T11:00:52;99660.25;;;7.56;92.97
4167;BME280;2097;51.104;7.150;2023-02-16T11:03:24;99616.53;;;7.24;92.15
4167;BME280;2097;51.104;7.150;2023-02-16T11:05:53;99680.84;;;7.59;92.32
4167;BME280;2097;51.104;7.150;2023-02-16T11:08:22;99681.66;;;7.59;92.73
4167;BME280;2097;51.104;7.150;2023-02-16T11:10:51;99677.19;;;7.64;92.89
4167;BME280;2097;51.104;7.150;2023-02-16T11:13:31;99681.41;;;7.67;93.10
4167;BME280;2097;51.104;7.150;2023-02-16T11:16:02;99627.03;;;7.45;93.03
4167;BME280;2097;51.104;7.150;2023-02-16T11:18:36;99663.22;;;7.70;93.17
4167;BME280;2097;51.104;7.150;2023-02-16T11:21:06;99672.66;;;7.72;93.24
4167;BME280;2097;51.104;7.150;2023-02-16T11:23:34;99586.94;;;7.34;93.54
4167;BME280;2097;51.104;7.150;2023-02-16T11:26:03;99658.38;;;7.87;93.13
4167;BME280;2097;51.104;7.150;2023-02-16T11:28:33;99616.84;;;7.67;93.44
4167;BME280;2097;51.104;7.150;2023-02-16T11:31:18;99600.13;;;7.77;92.98
4167;BME280;2097;51.104;7.150;2023-02-16T11:33:59;99653.59;;;8.26;92.63
4167;BME280;2097;51.104;7.150;2023-02-16T11:36:32;99647.06;;;8.39;92.64
4167;BME280;2097;51.104;7.150;2023-02-16T11:39:02;99643.03;;;8.55;92.24
4167;BME280;2097;51.104;7.150;2023-02-16T11:41:31;99636.44;;;8.71;91.92
4167;BME280;2097;51.104;7.150;2023-02-16T11:44:00;99560.16;;;8.35;91.57
4167;BME280;2097;51.104;7.150;2023-02-16T11:46:28;99501.25;;;8.20;91.36
4167;BME280;2097;51.104;7.150;2023-02-16T11:49:19;99623.13;;;9.03;91.64
4167;BME280;2097;51.104;7.150;2023-02-16T11:51:47;99619.25;;;9.13;91.33
4167;BME280;2097;51.104;7.150;2023-02-16T11:54:19;99094.44;;;6.07;90.54
4167;BME280;2097;51.104;7.150;2023-02-16T11:57:01;99499.44;;;8.67;90.39
4167;BME280;2097;51.104;7.150;2023-02-16T11:59:33;99612.00;;;9.44;90.21
4167;BME280;2097;51.104;7.150;2023-02-16T12:02:16;99561.50;;;9.11;90.35
4167;BME280;2097;51.104;7.150;2023-02-16T12:05:00;99491.81;;;8.64;90.62
4167;BME280;2097;51.104;7.150;2023-02-16T12:07:39;99612.22;;;9.38;90.74
4167;BME280;2097;51.104;7.150;2023-02-16T12:10:15;99605.38;;;9.37;90.79
4167;BME280;2097;51.104;7.150;2023-02-16T12:12:52;99595.72;;;9.40;90.58
4167;BME280;2097;51.104;7.150;2023-02-16T12:15:26;99596.44;;;9.44;90.84
4167;BME280;2097;51.104;7.150;2023-02-16T12:18:07;99536.28;;;9.16;91.12
4167;BME280;2097;51.104;7.150;2023-02-16T12:20:46;99534.06;;;9.28;90.11
4167;BME280;2097;51.104;7.150;2023-02-16T12:23:24;99473.09;;;9.00;89.71
4167;BME280;2097;51.104;7.150;2023-02-16T12:26:03;99572.34;;;9.62;89.67
4167;BME280;2097;51.104;7.150;2023-02-16T12:28:40;99590.97;;;9.71;89.98
4167;BME280;2097;51.104;7.150;2023-02-16T12:31:14;99585.78;;;9.71;89.74
4167;BME280;2097;51.104;7.150;2023-02-16T12:33:52;99578.06;;;9.70;89.89
4167;BME280;2097;51.104;7.150;2023-02-16T12:36:33;99579.22;;;9.63;90.10
4167;BME280;2097;51.104;7.150;2023-02-16T12:39:15;99583.94;;;9.53;90.27
4167;BME280;2097;51.104;7.150;2023-02-16T12:44:47;99593.34;;;9.34;90.42
4167;BME280;2097;51.104;7.150;2023-02-16T12:47:21;99586.03;;;9.24;90.69
4167;BME280;2097;51.104;7.150;2023-02-16T12:49:53;99585.44;;;9.17;90.83
4167;BME280;2097;51.104;7.150;2023-02-16T12:52:31;99497.84;;;8.64;90.46
4167;BME280;2097;51.104;7.150;2023-02-16T12:55:15;99522.50;;;8.73;90.73
4167;BME280;2097;51.104;7.150;2023-02-16T12:57:50;99588.97;;;9.15;90.61
4167;BME280;2097;51.104;7.150;2023-02-16T13:00:22;99579.38;;;9.17;90.25
4167;BME280;2097;51.104;7.150;2023-02-16T13:02:55;99421.81;;;8.24;90.28
4167;BME280;2097;51.104;7.150;2023-02-16T13:05:29;99569.94;;;9.16;90.83
4167;BME280;2097;51.104;7.150;2023-02-16T13:08:04;99562.78;;;9.22;91.31
4167;BME280;2097;51.104;7.150;2023-02-16T13:10:48;99555.69;;;9.27;91.16
4167;BME280;2097;51.104;7.150;2023-02-16T13:13:20;99549.41;;;9.33;91.38
4167;BME280;2097;51.104;7.150;2023-02-16T13:15:51;99548.75;;;9.28;91.77
4167;BME280;2097;51.104;7.150;2023-02-16T13:18:24;99555.25;;;9.16;92.26
4167;BME280;2097;51.104;7.150;2023-02-16T13:20:57;99536.44;;;8.92;92.70
4167;BME280;2097;51.104;7.150;2023-02-16T13:23:35;99058.16;;;6.13;92.97
4167;BME280;2097;51.104;7.150;2023-02-16T13:26:25;99543.78;;;9.02;93.79
4167;BME280;2097;51.104;7.150;2023-02-16T13:29:18;99540.28;;;9.03;94.04
4167;BME280;2097;51.104;7.150;2023-02-16T13:31:55;99533.22;;;9.06;94.36
4167;BME280;2097;51.104;7.150;2023-02-16T13:34:57;99534.59;;;9.15;94.11
4167;BME280;2097;51.104;7.150;2023-02-16T13:37:40;99287.53;;;7.77;93.42
4167;BME280;2097;51.104;7.150;2023-02-16T13:40:33;99522.97;;;9.25;94.06
4167;BME280;2097;51.104;7.150;2023-02-16T13:43:22;99528.88;;;9.28;94.03
4167;BME280;2097;51.104;7.150;2023-02-16T13:45:54;99532.06;;;9.35;93.87
4167;BME280;2097;51.104;7.150;2023-02-16T13:48:24;99532.06;;;9.35;94.38
4167;BME280;2097;51.104;7.150;2023-02-16T13:50:57;99507.63;;;9.40;94.34
4167;BME280;2097;51.104;7.150;2023-02-16T13:53:30;99514.16;;;9.49;94.33
4167;BME280;2097;51.104;7.150;2023-02-16T13:56:19;99493.13;;;9.56;94.21
4167;BME280;2097;51.104;7.150;2023-02-16T13:58:49;99489.22;;;9.66;94.20
4167;BME280;2097;51.104;7.150;2023-02-16T14:01:38;99291.94;;;8.59;93.86